Stolt Surf — ZCSR3 — position and weather

sailwx.info

Track history (hours):
 
Tides and Currents Weather Stations Pressure Air Temp Water Temp Dewpoint Dewpoint Depression Visibility Wind Speed Wind Dir Waves Ship Positions

Stolt Surf

Last reported at 2015-Jan-11 00:33 UTC. Time now 2015-Jan-31 19:13 UTC.
Position N 29°27' W 094°51'.
Warning: this ship's position is 20 days out of date.

Length 163 m; draft 8.6 m.

Type: Ship. MMSI: 319545000.

Date/timePositionNaut miles runAvg speedWind from/ knotsBaromVisibWave heightAir tempDewpointWater temp
2015-Jan-11 00:33N 29°27' W 094°51'1211.6
2015-Jan-10 23:34N 29°37' W 094°57'3 3.2
2015-Jan-10 22:33N 29°37' W 095°01'0 0.0
2015-Jan-10 21:32N 29°37' W 095°01'0 0.0
2015-Jan-10 20:33N 29°37' W 095°01'0 0.0
2015-Jan-10 19:33N 29°37' W 095°01'0 0.0
2015-Jan-10 18:33N 29°37' W 095°01'0 0.0
2015-Jan-10 17:29N 29°37' W 095°01'0 0.0
2015-Jan-10 16:33N 29°37' W 095°01'0 0.0
2015-Jan-10 15:33N 29°37' W 095°01'0 0.0
2015-Jan-10 14:32N 29°37' W 095°01'0 0.0
2015-Jan-09 23:15N 29°37' W 095°01'0 0.0
2015-Jan-09 22:30N 29°37' W 095°01'0 0.0
2015-Jan-09 21:32N 29°37' W 095°01'0 0.0
2015-Jan-09 20:29N 29°37' W 095°01'0 0.0
2015-Jan-09 19:30N 29°37' W 095°01'0 0.0
2015-Jan-09 17:33N 29°37' W 095°01'0 0.0
2015-Jan-09 15:30N 29°37' W 095°01'0 0.0
2015-Jan-09 14:27N 29°37' W 095°01'0 0.0
2015-Jan-08 21:12N 29°37' W 095°01'0 0.0
2015-Jan-08 20:23N 29°37' W 095°01'0 0.0
2015-Jan-08 19:18N 29°37' W 095°01'0 0.0
2015-Jan-08 17:30N 29°37' W 095°01'0 0.0
2015-Jan-08 16:17N 29°37' W 095°01'0 0.0
2015-Jan-08 15:30N 29°37' W 095°01'0 0.0
2015-Jan-08 14:30N 29°37' W 095°01'0 0.0
2015-Jan-08 13:27N 29°37' W 095°01'0 0.0
2015-Jan-08 03:12N 29°37' W 095°01'0 0.0
2015-Jan-07 20:33N 29°37' W 095°01'0 0.0
2015-Jan-07 19:30N 29°37' W 095°01'0 0.0
2015-Jan-07 18:33N 29°37' W 095°01'0 0.0
2015-Jan-07 17:30N 29°37' W 095°01'0 0.0
2015-Jan-07 16:32N 29°37' W 095°01'0 0.0
2015-Jan-07 15:18N 29°37' W 095°01'0 0.0
2015-Jan-07 14:33N 29°37' W 095°01'0 0.0
2015-Jan-07 12:09N 29°37' W 095°01'0 0.0
2015-Jan-07 11:27N 29°37' W 095°01'0 0.0
2015-Jan-07 00:27N 29°37' W 095°01'0 0.0
2015-Jan-06 23:33N 29°37' W 095°01'3 3.5
2015-Jan-06 22:33N 29°36' W 094°57'1111.3
2015-Jan-06 21:33N 29°27' W 094°50'2 0.2
2015-Jan-06 10:23N 29°25' W 094°49'1012.1
2015-Jan-06 09:33N 29°34' W 094°55'1010.4
2015-Jan-06 08:33N 29°42' W 095°01'6 5.4
2015-Jan-06 07:28N 29°44' W 095°08'0 0.1
2015-Jan-06 06:31N 29°44' W 095°08'0 0.0
2015-Jan-05 22:19N 29°44' W 095°08'0 0.0
2015-Jan-05 21:25N 29°44' W 095°08'0 0.0
2015-Jan-05 19:31N 29°44' W 095°08'0 0.0
2015-Jan-05 18:28N 29°44' W 095°08'0 0.0
2015-Jan-05 17:13N 29°44' W 095°08'0 0.0
2015-Jan-05 16:25N 29°44' W 095°08'0 0.0
2015-Jan-05 15:31N 29°44' W 095°08'0 0.0
2015-Jan-04 23:31N 29°44' W 095°08'0 0.0
2015-Jan-04 22:31N 29°44' W 095°08'0 0.0
2015-Jan-04 21:31N 29°44' W 095°08'0 0.0
2015-Jan-04 20:28N 29°44' W 095°08'0 0.0
2015-Jan-04 19:31N 29°44' W 095°08'0 0.0
2015-Jan-04 18:31N 29°44' W 095°08'0 0.0
2015-Jan-04 17:31N 29°44' W 095°08'0 0.0
2015-Jan-04 16:31N 29°44' W 095°08'0 0.0
2015-Jan-04 15:28N 29°44' W 095°08'0 0.0
2015-Jan-04 14:25N 29°44' W 095°08'0 0.0
2015-Jan-04 13:28N 29°44' W 095°08'0 0.0
2015-Jan-04 10:25N 29°44' W 095°08'4 3.9
2015-Jan-04 09:28N 29°44' W 095°12'4 0.8
2015-Jan-04 04:29N 29°44' W 095°16'0 0.0
2015-Jan-04 03:32N 29°44' W 095°16'0 0.0
2015-Jan-04 02:32N 29°44' W 095°16'0 0.0
2015-Jan-04 01:32N 29°44' W 095°16'0 0.0
2015-Jan-04 00:32N 29°44' W 095°16'0 0.0
2015-Jan-03 23:29N 29°44' W 095°16'0 0.0
2015-Jan-03 22:32N 29°44' W 095°16'0 0.0
2015-Jan-03 21:32N 29°44' W 095°16'0 0.0
2015-Jan-03 20:32N 29°44' W 095°16'0 0.0
2015-Jan-03 19:32N 29°44' W 095°16'0 0.0
2015-Jan-03 18:29N 29°44' W 095°16'0 0.0
2015-Jan-03 17:32N 29°44' W 095°16'0 0.0
2015-Jan-03 16:32N 29°44' W 095°16'0 0.0
2015-Jan-03 15:32N 29°44' W 095°16'0 0.0
2015-Jan-03 14:32N 29°44' W 095°16'0 0.0
2015-Jan-03 13:29N 29°44' W 095°16'0 0.0
2015-Jan-03 12:29N 29°44' W 095°16'0 0.0
2015-Jan-03 11:32N 29°44' W 095°16'0 0.0
2015-Jan-03 10:32N 29°44' W 095°16'0 0.0
2015-Jan-03 09:32N 29°44' W 095°16'0 0.0
2015-Jan-03 08:32N 29°44' W 095°16'0 0.0
2015-Jan-03 07:32N 29°44' W 095°16'0 0.0
2015-Jan-03 06:32N 29°44' W 095°16'0 0.0
2015-Jan-03 05:32N 29°44' W 095°16'0 0.0
2015-Jan-03 04:32N 29°44' W 095°16'0 0.0
2015-Jan-03 03:32N 29°44' W 095°16'0 0.0
2015-Jan-03 02:32N 29°44' W 095°16'0 0.0
2015-Jan-03 01:32N 29°44' W 095°16'0 0.0
2015-Jan-03 00:32N 29°44' W 095°16'0 0.0
2015-Jan-02 23:32N 29°44' W 095°16'0 0.0
2015-Jan-02 22:29N 29°44' W 095°16'0 0.0
2015-Jan-02 21:32N 29°44' W 095°16'0 0.0
2015-Jan-02 20:32N 29°44' W 095°16'0 0.0
2015-Jan-02 19:32N 29°44' W 095°16'0 0.0
2015-Jan-02 18:32N 29°44' W 095°16'0 0.0
2015-Jan-02 17:32N 29°44' W 095°16'0 0.0
2015-Jan-02 16:32N 29°44' W 095°16'0 0.0
2015-Jan-02 15:32N 29°44' W 095°16'0 0.0
2015-Jan-02 14:32N 29°44' W 095°16'0 0.0
2015-Jan-02 13:32N 29°44' W 095°16'0 0.0
2015-Jan-02 12:29N 29°44' W 095°16'0 0.0
2015-Jan-02 11:32N 29°44' W 095°16'0 0.0
2015-Jan-02 10:32N 29°44' W 095°16'0 0.0
2015-Jan-02 09:32N 29°44' W 095°16'0 0.0
2015-Jan-02 08:32N 29°44' W 095°16'0 0.0
2015-Jan-02 07:32N 29°44' W 095°16'0 0.0
2015-Jan-02 06:32N 29°44' W 095°16'0 0.0
2015-Jan-02 05:32N 29°44' W 095°16'0 0.0
2015-Jan-02 04:32N 29°44' W 095°16'0 0.0
2015-Jan-02 03:32N 29°44' W 095°16'0 0.0
2015-Jan-02 02:32N 29°44' W 095°16'0 0.0
2015-Jan-02 01:29N 29°44' W 095°16'0 0.0
2015-Jan-02 00:32N 29°44' W 095°16'0 0.0
2015-Jan-01 23:32N 29°44' W 095°16'0 0.0
2015-Jan-01 22:29N 29°44' W 095°16'0 0.0
2015-Jan-01 21:32N 29°44' W 095°16'0 0.0
2015-Jan-01 20:32N 29°44' W 095°16'0 0.0
2015-Jan-01 19:32N 29°44' W 095°16'0 0.0
2015-Jan-01 18:32N 29°44' W 095°16'0 0.0
2015-Jan-01 17:32N 29°44' W 095°16'0 0.0
2015-Jan-01 16:32N 29°44' W 095°16'0 0.0
2015-Jan-01 15:32N 29°44' W 095°16'0 0.0
2015-Jan-01 14:32N 29°44' W 095°16'0 0.0
2015-Jan-01 13:32N 29°44' W 095°16'0 0.0
2015-Jan-01 12:32N 29°44' W 095°16'0 0.0
2015-Jan-01 11:32N 29°44' W 095°16'0 0.0
2015-Jan-01 10:32N 29°44' W 095°16'0 0.0
2015-Jan-01 09:32N 29°44' W 095°16'0 0.0
2015-Jan-01 08:29N 29°44' W 095°16'0 0.0
2015-Jan-01 07:32N 29°44' W 095°16'0 0.0
2015-Jan-01 06:32N 29°44' W 095°16'0 0.0
2015-Jan-01 05:29N 29°44' W 095°16'0 0.0
2015-Jan-01 04:32N 29°44' W 095°16'0 0.0
2015-Jan-01 03:32N 29°44' W 095°16'0 0.0
2015-Jan-01 02:32N 29°44' W 095°16'0 0.0
2015-Jan-01 01:29N 29°44' W 095°16'  
Track history (hours):
 
Tides and Currents Weather Stations Pressure Air Temp Water Temp Dewpoint Dewpoint Depression Visibility Wind Speed Wind Dir Waves Ship Positions

Stolt Surf

Last reported at 2015-Jan-11 00:33 UTC. Time now 2015-Jan-31 19:13 UTC.
Position N 29°27' W 094°51'.
Warning: this ship's position is 20 days out of date.

Length 163 m; draft 8.6 m.

Type: Ship. MMSI: 319545000.

Date/timePositionNaut miles runAvg speedWind from/ knotsBaromVisibWave heightAir tempDewpointWater temp
2015-Jan-11 00:33N 29°27' W 094°51'1211.6
2015-Jan-10 23:34N 29°37' W 094°57'3 3.2
2015-Jan-10 22:33N 29°37' W 095°01'0 0.0
2015-Jan-10 21:32N 29°37' W 095°01'0 0.0
2015-Jan-10 20:33N 29°37' W 095°01'0 0.0
2015-Jan-10 19:33N 29°37' W 095°01'0 0.0
2015-Jan-10 18:33N 29°37' W 095°01'0 0.0
2015-Jan-10 17:29N 29°37' W 095°01'0 0.0
2015-Jan-10 16:33N 29°37' W 095°01'0 0.0
2015-Jan-10 15:33N 29°37' W 095°01'0 0.0
2015-Jan-10 14:32N 29°37' W 095°01'0 0.0
2015-Jan-09 23:15N 29°37' W 095°01'0 0.0
2015-Jan-09 22:30N 29°37' W 095°01'0 0.0
2015-Jan-09 21:32N 29°37' W 095°01'0 0.0
2015-Jan-09 20:29N 29°37' W 095°01'0 0.0
2015-Jan-09 19:30N 29°37' W 095°01'0 0.0
2015-Jan-09 17:33N 29°37' W 095°01'0 0.0
2015-Jan-09 15:30N 29°37' W 095°01'0 0.0
2015-Jan-09 14:27N 29°37' W 095°01'0 0.0
2015-Jan-08 21:12N 29°37' W 095°01'0 0.0
2015-Jan-08 20:23N 29°37' W 095°01'0 0.0
2015-Jan-08 19:18N 29°37' W 095°01'0 0.0
2015-Jan-08 17:30N 29°37' W 095°01'0 0.0
2015-Jan-08 16:17N 29°37' W 095°01'0 0.0
2015-Jan-08 15:30N 29°37' W 095°01'0 0.0
2015-Jan-08 14:30N 29°37' W 095°01'0 0.0
2015-Jan-08 13:27N 29°37' W 095°01'0 0.0
2015-Jan-08 03:12N 29°37' W 095°01'0 0.0
2015-Jan-07 20:33N 29°37' W 095°01'0 0.0
2015-Jan-07 19:30N 29°37' W 095°01'0 0.0
2015-Jan-07 18:33N 29°37' W 095°01'0 0.0
2015-Jan-07 17:30N 29°37' W 095°01'0 0.0
2015-Jan-07 16:32N 29°37' W 095°01'0 0.0
2015-Jan-07 15:18N 29°37' W 095°01'0 0.0
2015-Jan-07 14:33N 29°37' W 095°01'0 0.0
2015-Jan-07 12:09N 29°37' W 095°01'0 0.0
2015-Jan-07 11:27N 29°37' W 095°01'0 0.0
2015-Jan-07 00:27N 29°37' W 095°01'0 0.0
2015-Jan-06 23:33N 29°37' W 095°01'3 3.5
2015-Jan-06 22:33N 29°36' W 094°57'1111.3
2015-Jan-06 21:33N 29°27' W 094°50'2 0.2
2015-Jan-06 10:23N 29°25' W 094°49'1012.1
2015-Jan-06 09:33N 29°34' W 094°55'1010.4
2015-Jan-06 08:33N 29°42' W 095°01'6 5.4
2015-Jan-06 07:28N 29°44' W 095°08'0 0.1
2015-Jan-06 06:31N 29°44' W 095°08'0 0.0
2015-Jan-05 22:19N 29°44' W 095°08'0 0.0
2015-Jan-05 21:25N 29°44' W 095°08'0 0.0
2015-Jan-05 19:31N 29°44' W 095°08'0 0.0
2015-Jan-05 18:28N 29°44' W 095°08'0 0.0
2015-Jan-05 17:13N 29°44' W 095°08'0 0.0
2015-Jan-05 16:25N 29°44' W 095°08'0 0.0
2015-Jan-05 15:31N 29°44' W 095°08'0 0.0
2015-Jan-04 23:31N 29°44' W 095°08'0 0.0
2015-Jan-04 22:31N 29°44' W 095°08'0 0.0
2015-Jan-04 21:31N 29°44' W 095°08'0 0.0
2015-Jan-04 20:28N 29°44' W 095°08'0 0.0
2015-Jan-04 19:31N 29°44' W 095°08'0 0.0
2015-Jan-04 18:31N 29°44' W 095°08'0 0.0
2015-Jan-04 17:31N 29°44' W 095°08'0 0.0
2015-Jan-04 16:31N 29°44' W 095°08'0 0.0
2015-Jan-04 15:28N 29°44' W 095°08'0 0.0
2015-Jan-04 14:25N 29°44' W 095°08'0 0.0
2015-Jan-04 13:28N 29°44' W 095°08'0 0.0
2015-Jan-04 10:25N 29°44' W 095°08'4 3.9
2015-Jan-04 09:28N 29°44' W 095°12'4 0.8
2015-Jan-04 04:29N 29°44' W 095°16'0 0.0
2015-Jan-04 03:32N 29°44' W 095°16'0 0.0
2015-Jan-04 02:32N 29°44' W 095°16'0 0.0
2015-Jan-04 01:32N 29°44' W 095°16'0 0.0
2015-Jan-04 00:32N 29°44' W 095°16'0 0.0
2015-Jan-03 23:29N 29°44' W 095°16'0 0.0
2015-Jan-03 22:32N 29°44' W 095°16'0 0.0
2015-Jan-03 21:32N 29°44' W 095°16'0 0.0
2015-Jan-03 20:32N 29°44' W 095°16'0 0.0
2015-Jan-03 19:32N 29°44' W 095°16'0 0.0
2015-Jan-03 18:29N 29°44' W 095°16'0 0.0
2015-Jan-03 17:32N 29°44' W 095°16'0 0.0
2015-Jan-03 16:32N 29°44' W 095°16'0 0.0
2015-Jan-03 15:32N 29°44' W 095°16'0 0.0
2015-Jan-03 14:32N 29°44' W 095°16'0 0.0
2015-Jan-03 13:29N 29°44' W 095°16'0 0.0
2015-Jan-03 12:29N 29°44' W 095°16'0 0.0
2015-Jan-03 11:32N 29°44' W 095°16'0 0.0
2015-Jan-03 10:32N 29°44' W 095°16'0 0.0
2015-Jan-03 09:32N 29°44' W 095°16'0 0.0
2015-Jan-03 08:32N 29°44' W 095°16'0 0.0
2015-Jan-03 07:32N 29°44' W 095°16'0 0.0
2015-Jan-03 06:32N 29°44' W 095°16'0 0.0
2015-Jan-03 05:32N 29°44' W 095°16'0 0.0
2015-Jan-03 04:32N 29°44' W 095°16'0 0.0
2015-Jan-03 03:32N 29°44' W 095°16'0 0.0
2015-Jan-03 02:32N 29°44' W 095°16'0 0.0
2015-Jan-03 01:32N 29°44' W 095°16'0 0.0
2015-Jan-03 00:32N 29°44' W 095°16'0 0.0
2015-Jan-02 23:32N 29°44' W 095°16'0 0.0
2015-Jan-02 22:29N 29°44' W 095°16'0 0.0
2015-Jan-02 21:32N 29°44' W 095°16'0 0.0
2015-Jan-02 20:32N 29°44' W 095°16'0 0.0
2015-Jan-02 19:32N 29°44' W 095°16'0 0.0
2015-Jan-02 18:32N 29°44' W 095°16'0 0.0
2015-Jan-02 17:32N 29°44' W 095°16'0 0.0
2015-Jan-02 16:32N 29°44' W 095°16'0 0.0
2015-Jan-02 15:32N 29°44' W 095°16'0 0.0
2015-Jan-02 14:32N 29°44' W 095°16'0 0.0
2015-Jan-02 13:32N 29°44' W 095°16'0 0.0
2015-Jan-02 12:29N 29°44' W 095°16'0 0.0
2015-Jan-02 11:32N 29°44' W 095°16'0 0.0
2015-Jan-02 10:32N 29°44' W 095°16'0 0.0
2015-Jan-02 09:32N 29°44' W 095°16'0 0.0
2015-Jan-02 08:32N 29°44' W 095°16'0 0.0
2015-Jan-02 07:32N 29°44' W 095°16'0 0.0
2015-Jan-02 06:32N 29°44' W 095°16'0 0.0
2015-Jan-02 05:32N 29°44' W 095°16'0 0.0
2015-Jan-02 04:32N 29°44' W 095°16'0 0.0
2015-Jan-02 03:32N 29°44' W 095°16'0 0.0
2015-Jan-02 02:32N 29°44' W 095°16'0 0.0
2015-Jan-02 01:29N 29°44' W 095°16'0 0.0
2015-Jan-02 00:32N 29°44' W 095°16'0 0.0
2015-Jan-01 23:32N 29°44' W 095°16'0 0.0
2015-Jan-01 22:29N 29°44' W 095°16'0 0.0
2015-Jan-01 21:32N 29°44' W 095°16'0 0.0
2015-Jan-01 20:32N 29°44' W 095°16'0 0.0
2015-Jan-01 19:32N 29°44' W 095°16'0 0.0
2015-Jan-01 18:32N 29°44' W 095°16'0 0.0
2015-Jan-01 17:32N 29°44' W 095°16'0 0.0
2015-Jan-01 16:32N 29°44' W 095°16'0 0.0
2015-Jan-01 15:32N 29°44' W 095°16'0 0.0
2015-Jan-01 14:32N 29°44' W 095°16'0 0.0
2015-Jan-01 13:32N 29°44' W 095°16'0 0.0
2015-Jan-01 12:32N 29°44' W 095°16'0 0.0
2015-Jan-01 11:32N 29°44' W 095°16'0 0.0
2015-Jan-01 10:32N 29°44' W 095°16'0 0.0
2015-Jan-01 09:32N 29°44' W 095°16'0 0.0
2015-Jan-01 08:29N 29°44' W 095°16'0 0.0
2015-Jan-01 07:32N 29°44' W 095°16'0 0.0
2015-Jan-01 06:32N 29°44' W 095°16'0 0.0
2015-Jan-01 05:29N 29°44' W 095°16'0 0.0
2015-Jan-01 04:32N 29°44' W 095°16'0 0.0
2015-Jan-01 03:32N 29°44' W 095°16'0 0.0
2015-Jan-01 02:32N 29°44' W 095°16'0 0.0
2015-Jan-01 01:29N 29°44' W 095°16'  

Dump ship's entire track history